SALMON FALLS @ MILTON: From 11/04/2019 09:00 to 11/18/2019 16:00

Date STAGE [FT] FLOW [CFS] LAKE ELEVATION [FT] PRECIPITATION INCREMENT [IN] AIR TEMPERATURE [DEGF]
11/18/2019 10:00 3.51 -- 412.29 0.00 32.8
11/18/2019 09:00 3.50 226.0 412.30 0.00 32.0
11/18/2019 08:00 3.50 226.0 412.30 0.00 31.4
11/18/2019 07:00 3.37 180.0 412.31 0.00 30.9
11/18/2019 06:00 3.37 180.0 412.31 0.00 31.2
11/18/2019 05:00 3.37 180.0 412.32 0.00 31.2
11/18/2019 04:00 3.37 180.0 412.31 0.00 31.0
11/18/2019 03:00 3.37 180.0 412.32 0.00 30.9
11/18/2019 02:00 3.37 180.0 412.32 0.00 31.1
11/18/2019 01:00 3.38 183.3 412.31 0.00 31.3
11/18/2019 00:00 3.39 186.6 412.33 0.00 31.4
11/17/2019 23:00 3.39 186.6 412.32 0.00 31.2
11/17/2019 22:00 3.39 186.6 412.33 0.00 31.2
11/17/2019 21:00 3.39 186.6 412.33 0.00 31.6
11/17/2019 20:00 3.39 186.6 412.33 0.00 31.8
11/17/2019 19:00 3.39 186.6 412.33 0.00 32.3
11/17/2019 18:00 3.40 190.0 412.34 0.00 32.8
11/17/2019 17:00 3.40 190.0 412.33 0.00 33.2
11/17/2019 16:00 3.40 190.0 412.34 0.00 33.3
11/17/2019 15:00 3.40 190.0 412.35 0.00 34.0
11/17/2019 14:00 3.41 193.4 412.35 0.00 33.8
11/17/2019 13:00 3.41 193.4 412.35 0.00 31.4
11/17/2019 12:00 3.42 196.9 412.35 0.00 29.6
11/17/2019 11:00 3.42 196.9 412.36 0.00 26.6
11/17/2019 10:00 3.43 200.3 412.37 0.00 24.4
11/17/2019 09:00 3.43 200.3 412.37 0.00 20.4
11/17/2019 08:00 3.43 200.3 412.37 0.00 17.0
11/17/2019 07:00 3.43 200.3 412.38 0.00 16.0
11/17/2019 06:00 3.43 200.3 412.38 0.00 16.0
11/17/2019 05:00 3.44 203.9 412.38 0.00 16.8
11/17/2019 04:00 3.45 207.5 412.38 0.00 18.2
11/17/2019 03:00 3.45 207.5 412.39 0.00 18.8
11/17/2019 02:00 3.45 207.5 412.39 0.00 19.1
11/17/2019 01:00 3.45 207.5 412.39 0.00 19.7
11/17/2019 00:00 3.46 211.1 412.40 0.00 21.0
11/16/2019 23:00 3.46 211.1 412.40 0.00 23.1
11/16/2019 22:00 3.47 214.7 412.41 0.00 23.7
11/16/2019 21:00 3.46 211.1 412.41 0.00 23.5
11/16/2019 20:00 3.47 214.7 412.41 0.00 23.4
11/16/2019 19:00 3.48 218.4 412.42 0.00 25.8
11/16/2019 18:00 3.47 214.7 412.41 0.00 27.4
11/16/2019 17:00 3.48 218.4 412.43 0.00 28.7
11/16/2019 16:00 3.49 222.2 412.43 0.00 30.4
11/16/2019 15:00 3.49 222.2 412.44 0.00 30.0
11/16/2019 14:00 3.49 222.2 412.43 0.00 30.0
11/16/2019 13:00 3.50 226.0 412.45 0.00 29.0
11/16/2019 12:00 3.50 226.0 412.45 0.00 28.5
11/16/2019 11:00 3.53 237.5 412.46 0.00 25.9
11/16/2019 10:00 3.53 237.5 412.46 0.00 24.1
11/16/2019 09:00 3.41 193.4 412.47 0.00 21.6
11/16/2019 08:00 3.43 200.3 412.48 0.00 20.9
11/16/2019 07:00 3.42 196.9 412.47 0.00 21.0
11/16/2019 06:00 3.42 196.9 412.47 0.00 22.3
11/16/2019 05:00 3.44 203.9 412.49 0.00 23.5
11/16/2019 04:00 3.45 207.5 412.50 0.00 25.4
11/16/2019 03:00 3.43 200.3 412.49 0.00 27.0
11/16/2019 02:00 3.43 200.3 412.47 0.00 29.9
11/16/2019 01:00 3.45 207.5 412.50 0.00 32.9
11/16/2019 00:00 3.44 203.9 412.49 0.00 34.2
11/15/2019 23:00 3.45 207.5 412.50 0.00 36.6
11/15/2019 22:00 3.43 200.3 412.49 0.00 39.1
11/15/2019 21:00 3.44 203.9 412.49 0.00 39.9
11/15/2019 20:00 3.44 203.9 412.50 0.00 40.8
11/15/2019 19:00 3.45 207.5 412.49 0.00 41.7
11/15/2019 18:00 3.44 203.9 412.51 0.00 42.9
11/15/2019 17:00 3.45 207.5 412.51 0.00 44.1
11/15/2019 16:00 3.45 207.5 412.50 0.00 46.9
11/15/2019 15:00 3.46 211.1 412.49 0.00 46.4
11/15/2019 14:00 3.47 214.7 412.51 0.00 45.2
11/15/2019 13:00 3.48 218.4 412.52 0.00 43.0
11/15/2019 12:00 3.48 218.4 412.52 0.00 41.3
11/15/2019 11:00 3.48 218.4 412.54 0.00 39.5
11/15/2019 10:00 3.49 222.2 412.54 0.00 35.9
11/15/2019 09:00 3.43 200.3 412.55 0.00 26.9
11/15/2019 08:00 3.44 203.9 412.55 0.00 25.2
11/15/2019 07:00 3.44 203.9 412.55 0.00 26.9
11/15/2019 06:00 3.44 203.9 412.55 0.00 26.1
11/15/2019 05:00 3.45 207.5 412.56 0.00 28.0
11/15/2019 04:00 3.45 207.5 412.55 0.00 28.2
11/15/2019 03:00 3.45 207.5 412.55 0.00 28.6
11/15/2019 02:00 3.45 207.5 412.56 0.00 28.6
11/15/2019 01:00 3.46 211.1 412.57 0.00 28.4
11/15/2019 00:00 3.47 214.7 412.57 0.00 28.5
11/14/2019 23:00 3.46 211.1 412.57 0.00 28.7
11/14/2019 22:00 3.47 214.7 412.58 0.00 28.9
11/14/2019 21:00 3.48 218.4 412.58 0.00 29.1
11/14/2019 20:00 3.48 218.4 412.58 0.00 28.6
11/14/2019 19:00 3.48 218.4 412.59 0.00 29.0
11/14/2019 18:00 3.48 218.4 412.59 0.00 29.1
11/14/2019 17:00 3.50 226.0 412.60 0.00 29.4
11/14/2019 16:00 3.49 222.2 412.60 0.00 29.6
11/14/2019 15:00 3.50 226.0 412.60 0.00 29.2
11/14/2019 14:00 3.48 218.4 412.60 0.00 29.1
11/14/2019 13:00 3.49 222.2 412.61 0.00 27.6
11/14/2019 12:00 3.37 180.0 412.60 0.00 26.7
11/14/2019 11:00 3.35 173.5 412.63 0.00 25.4
11/14/2019 10:00 3.35 173.5 412.64 0.00 20.2
11/14/2019 09:00 3.36 176.7 412.63 0.00 16.3
11/14/2019 08:00 3.36 176.7 412.64 0.00 13.9
11/14/2019 07:00 3.36 176.7 412.64 0.00 12.9
11/14/2019 06:00 3.36 176.7 412.65 0.00 12.8
11/14/2019 05:00 3.36 176.7 412.65 0.00 13.0
11/14/2019 04:00 3.36 176.7 412.64 0.00 13.2
11/14/2019 03:00 3.36 176.7 412.65 0.00 13.7
11/14/2019 02:00 3.37 180.0 412.66 0.00 14.9
11/14/2019 01:00 3.36 176.7 412.66 0.00 14.7
11/14/2019 00:00 3.36 176.7 412.66 0.00 15.0
11/13/2019 23:00 3.37 180.0 412.66 0.00 16.9
11/13/2019 22:00 3.36 176.7 412.66 0.00 18.6
11/13/2019 21:00 3.37 180.0 412.67 0.00 19.9
11/13/2019 20:00 3.36 176.7 412.68 0.00 20.5
11/13/2019 19:00 3.37 180.0 412.67 0.00 20.4
11/13/2019 18:00 3.36 176.7 412.67 0.00 20.3
11/13/2019 17:00 3.36 176.7 412.66 0.00 21.2
11/13/2019 16:00 3.38 183.3 412.69 0.00 22.4
11/13/2019 15:00 3.38 183.3 412.68 0.00 22.0
11/13/2019 14:00 3.31 161.0 412.70 0.00 22.3
11/13/2019 13:00 3.29 155.0 412.69 0.00 21.1
11/13/2019 12:00 3.33 167.2 412.72 0.00 20.1
11/13/2019 11:00 3.31 161.0 412.72 0.00 18.6
11/13/2019 10:00 3.30 158.0 412.65 0.00 15.9
11/13/2019 09:00 3.31 161.0 412.70 0.00 14.0
11/13/2019 08:00 3.31 161.0 412.70 0.00 12.9
11/13/2019 07:00 3.30 158.0 412.68 0.00 12.9
11/13/2019 06:00 3.32 164.1 412.68 0.00 13.6
11/13/2019 05:00 3.30 158.0 412.71 0.00 13.9
11/13/2019 04:00 3.31 161.0 412.70 0.00 14.5
11/13/2019 03:00 3.30 158.0 412.69 0.00 15.0
11/13/2019 02:00 3.31 161.0 412.67 0.00 15.8
11/13/2019 01:00 3.31 161.0 412.67 0.00 17.5
11/13/2019 00:00 3.31 161.0 412.70 0.00 18.5
11/12/2019 23:00 3.31 161.0 412.70 0.00 19.6
11/12/2019 22:00 3.32 164.1 412.69 0.00 20.7
11/12/2019 21:00 3.31 161.0 412.66 0.00 22.6
11/12/2019 20:00 3.31 161.0 412.71 0.00 24.1
11/12/2019 19:00 3.32 164.1 412.73 0.00 25.3
11/12/2019 18:00 3.31 161.0 412.71 0.00 26.0
11/12/2019 17:00 3.31 161.0 412.72 0.00 26.4
11/12/2019 16:00 3.31 161.0 412.69 0.00 27.0
11/12/2019 15:00 3.32 164.1 412.71 0.00 29.0
11/12/2019 14:00 3.32 164.1 412.72 0.00 32.1
11/12/2019 13:00 3.31 161.0 412.71 0.00 34.9
11/12/2019 12:00 3.32 164.1 412.71 0.00 33.3
11/12/2019 11:00 3.32 164.1 412.72 0.00 32.0
11/12/2019 10:00 3.32 164.1 412.72 0.00 30.4
11/12/2019 09:00 3.32 164.1 412.72 0.00 29.6
11/12/2019 08:00 3.32 164.1 412.72 0.00 29.7
11/12/2019 07:00 3.32 164.1 412.72 0.00 29.6
11/12/2019 06:00 3.33 167.2 412.73 0.00 29.7
11/12/2019 05:00 3.36 176.7 412.75 0.00 29.8
11/12/2019 04:00 3.34 170.3 412.76 0.00 29.7
11/12/2019 03:00 3.34 170.3 412.73 0.00 29.8
11/12/2019 02:00 3.35 173.5 412.75 0.00 29.9
11/12/2019 01:00 3.34 170.3 412.75 0.00 30.2
11/12/2019 00:00 3.36 176.7 412.76 0.00 30.5
11/11/2019 23:00 3.35 173.5 412.75 0.00 31.0
11/11/2019 22:00 3.35 173.5 412.76 0.00 31.6
11/11/2019 21:00 3.34 170.3 412.74 0.00 32.9
11/11/2019 20:00 3.33 167.2 412.73 0.00 33.5
11/11/2019 19:00 3.34 170.3 412.75 0.00 34.1
11/11/2019 18:00 3.33 167.2 412.74 0.00 35.9
11/11/2019 17:00 3.33 167.2 412.73 0.00 37.0
11/11/2019 16:00 3.33 167.2 412.73 0.00 38.1
11/11/2019 15:00 3.33 167.2 412.73 0.00 38.5
11/11/2019 14:00 3.33 167.2 412.73 0.00 39.3
11/11/2019 13:00 3.33 167.2 412.74 0.00 40.9
11/11/2019 12:00 3.33 167.2 412.73 0.00 42.3
11/11/2019 11:00 3.33 167.2 412.73 0.00 42.3
11/11/2019 10:00 3.33 167.2 412.73 0.00 41.0
11/11/2019 09:00 3.33 167.2 412.73 0.00 39.2
11/11/2019 08:00 3.33 167.2 412.73 0.00 38.5
11/11/2019 07:00 3.33 167.2 412.73 0.00 37.7
11/11/2019 06:00 3.33 167.2 412.73 0.00 38.2
11/11/2019 05:00 3.33 167.2 412.74 0.00 38.2
11/11/2019 04:00 3.33 167.2 412.73 0.00 38.6
11/11/2019 03:00 3.33 167.2 412.74 0.00 38.3
11/11/2019 02:00 3.33 167.2 412.74 0.00 38.3
11/11/2019 01:00 3.33 167.2 412.73 0.00 38.0
11/11/2019 00:00 3.33 167.2 412.74 0.00 38.8
11/10/2019 23:00 3.33 167.2 412.73 0.00 39.5
11/10/2019 22:00 3.33 167.2 412.75 0.00 40.9
11/10/2019 21:00 3.33 167.2 412.72 0.00 40.3
11/10/2019 20:00 3.33 167.2 412.74 0.00 39.2
11/10/2019 19:00 3.33 167.2 412.73 0.00 39.2
11/10/2019 18:00 3.34 170.3 412.74 0.00 38.6
11/10/2019 17:00 3.33 167.2 412.74 0.00 44.6
11/10/2019 16:00 3.33 167.2 412.73 0.00 45.0
11/10/2019 15:00 3.33 167.2 412.73 0.00 45.0
11/10/2019 14:00 3.32 164.1 412.71 0.00 43.9
11/10/2019 13:00 3.33 167.2 412.73 0.00 42.5
11/10/2019 12:00 3.33 167.2 412.73 0.00 39.6
11/10/2019 11:00 3.33 167.2 412.73 0.00 37.5
11/10/2019 10:00 3.33 167.2 412.74 0.00 35.4
11/10/2019 09:00 3.33 167.2 412.74 0.00 31.5
11/10/2019 08:00 3.34 170.3 412.74 0.00 30.1
11/10/2019 07:00 3.33 167.2 412.74 0.00 30.5
11/10/2019 06:00 3.33 167.2 412.74 0.00 30.7
11/10/2019 05:00 3.33 167.2 412.73 0.00 30.0
11/10/2019 04:00 3.33 167.2 412.74 0.00 30.4
11/10/2019 03:00 3.33 167.2 412.75 0.00 29.4
11/10/2019 02:00 3.33 167.2 412.74 0.00 28.0
11/10/2019 01:00 3.33 167.2 412.74 0.00 26.3
11/10/2019 00:00 3.33 167.2 412.74 0.00 29.4
11/09/2019 23:00 3.34 170.3 412.74 0.00 29.5
11/09/2019 22:00 3.33 167.2 412.74 0.00 28.3
11/09/2019 21:00 3.33 167.2 412.74 0.00 27.5
11/09/2019 20:00 3.33 167.2 412.74 0.00 29.2
11/09/2019 19:00 3.34 170.3 412.74 0.00 31.0
11/09/2019 18:00 3.33 167.2 412.74 0.00 32.6
11/09/2019 17:00 3.33 167.2 412.74 0.00 35.7
11/09/2019 16:00 3.33 167.2 412.72 0.00 37.5
11/09/2019 15:00 3.33 167.2 412.75 0.00 37.2
11/09/2019 14:00 3.33 167.2 412.73 0.00 36.9
11/09/2019 13:00 3.33 167.2 412.74 0.00 36.8
11/09/2019 12:00 3.33 167.2 412.73 0.00 34.7
11/09/2019 11:00 3.33 167.2 412.74 0.00 32.8
11/09/2019 10:00 3.33 167.2 412.74 0.00 29.5
11/09/2019 09:00 3.33 167.2 412.74 0.00 21.5
11/09/2019 08:00 3.33 167.2 412.74 0.00 19.5
11/09/2019 07:00 3.33 167.2 412.74 0.00 20.4
11/09/2019 06:00 3.33 167.2 412.74 0.00 21.6
11/09/2019 05:00 3.33 167.2 412.73 0.00 22.2
11/09/2019 04:00 3.34 170.3 412.73 0.00 22.3
11/09/2019 03:00 3.33 167.2 412.73 0.00 23.9
11/09/2019 02:00 3.33 167.2 412.74 0.00 24.0
11/09/2019 01:00 3.33 167.2 412.73 0.00 25.4
11/09/2019 00:00 3.33 167.2 412.73 0.00 24.8
11/08/2019 23:00 3.33 167.2 412.74 0.00 26.9
11/08/2019 22:00 3.33 167.2 412.74 0.00 27.9
11/08/2019 21:00 3.33 167.2 412.73 0.00 27.5
11/08/2019 20:00 3.33 167.2 412.73 0.00 28.2
11/08/2019 19:00 3.33 167.2 412.73 0.00 27.5
11/08/2019 18:00 3.32 164.1 412.74 0.00 27.6
11/08/2019 17:00 3.34 170.3 412.74 0.00 28.8
11/08/2019 16:00 3.34 170.3 412.73 0.00 29.3
11/08/2019 15:00 3.34 170.3 412.77 0.00 30.5
11/08/2019 14:00 3.34 170.3 412.76 0.00 30.5
11/08/2019 13:00 3.33 167.2 412.72 0.00 31.2
11/08/2019 12:00 3.33 167.2 412.76 0.00 30.9
11/08/2019 11:00 3.33 167.2 412.75 0.00 30.9
11/08/2019 10:00 3.33 167.2 412.75 0.00 29.5
11/08/2019 09:00 3.33 167.2 412.74 0.00 29.3
11/08/2019 08:00 3.32 164.1 412.73 0.00 28.6
11/08/2019 07:00 3.33 167.2 412.74 0.00 28.4
11/08/2019 06:00 3.33 167.2 412.74 0.00 29.8
11/08/2019 05:00 3.34 170.3 412.75 0.00 31.0
11/08/2019 04:00 3.33 167.2 412.74 0.00 31.9
11/08/2019 03:00 3.34 170.3 412.75 0.00 33.5
11/08/2019 02:00 3.33 167.2 412.74 0.00 34.4
11/08/2019 01:00 3.34 170.3 412.75 0.00 35.6
11/08/2019 00:00 3.34 170.3 412.75 0.00 36.2
11/07/2019 23:00 3.33 167.2 412.75 0.00 37.1
11/07/2019 22:00 3.34 170.3 412.75 0.00 38.8
11/07/2019 21:00 3.33 167.2 412.74 0.00 40.0
11/07/2019 20:00 3.33 167.2 412.74 0.00 40.5
11/07/2019 19:00 3.33 167.2 412.74 0.00 40.8
11/07/2019 18:00 3.33 167.2 412.73 0.00 41.2
11/07/2019 17:00 3.33 167.2 412.74 0.00 42.0
11/07/2019 16:00 3.32 164.1 412.73 0.00 41.8
11/07/2019 15:00 3.33 167.2 412.74 0.00 42.5
11/07/2019 14:00 3.32 164.1 412.74 0.00 41.2
11/07/2019 13:00 3.33 167.2 412.74 0.00 38.9
11/07/2019 12:00 3.33 167.2 412.73 0.00 38.5
11/07/2019 11:00 3.33 167.2 412.73 0.00 37.8
11/07/2019 10:00 3.33 167.2 412.74 0.00 37.0
11/07/2019 09:00 3.33 167.2 412.74 0.00 35.3
11/07/2019 08:00 3.34 170.3 412.75 0.00 33.6
11/07/2019 07:00 3.34 170.3 412.75 0.00 33.8
11/07/2019 06:00 3.33 167.2 412.75 0.00 33.7
11/07/2019 05:00 3.33 167.2 412.75 0.00 34.1
11/07/2019 04:00 3.34 170.3 412.76 0.00 33.1
11/07/2019 03:00 3.34 170.3 412.76 0.00 32.3
11/07/2019 02:00 3.35 173.5 412.77 0.00 32.0
11/07/2019 01:00 3.35 173.5 412.77 0.00 31.4
11/07/2019 00:00 3.35 173.5 412.77 0.00 32.2
11/06/2019 23:00 3.35 173.5 412.77 0.00 32.4
11/06/2019 22:00 3.35 173.5 412.78 0.00 33.1
11/06/2019 21:00 3.35 173.5 412.77 0.00 35.4
11/06/2019 20:00 3.36 176.7 412.78 0.00 37.2
11/06/2019 19:00 3.35 173.5 412.77 0.00 39.3
11/06/2019 18:00 3.36 176.7 412.78 0.00 42.8
11/06/2019 17:00 3.36 176.7 412.79 0.00 46.5
11/06/2019 16:00 3.35 173.5 412.78 0.00 48.9
11/06/2019 15:00 3.34 170.3 412.77 0.00 47.9
11/06/2019 14:00 3.39 186.6 412.81 0.00 48.5
11/06/2019 13:00 3.37 180.0 412.82 0.00 47.5
11/06/2019 12:00 3.37 180.0 412.80 0.00 46.7
11/06/2019 11:00 3.37 180.0 412.82 0.00 45.5
11/06/2019 10:00 -- -- 412.82 0.00 44.4
11/06/2019 09:00 -- -- 412.80 0.00 37.0
11/06/2019 08:00 -- -- 412.80 0.00 33.8
11/06/2019 07:00 -- -- 412.80 0.00 34.2
11/06/2019 06:00 -- -- 412.81 0.00 36.6
11/06/2019 05:00 -- -- 412.81 0.00 38.4
11/06/2019 04:00 -- -- 412.81 0.00 40.8
11/06/2019 03:00 -- -- 412.81 0.00 43.6
11/06/2019 02:00 -- -- 412.81 0.00 45.6
11/06/2019 01:00 -- -- 412.82 0.00 47.3
11/06/2019 00:00 -- -- 412.82 0.00 46.5
11/05/2019 23:00 -- -- 412.83 0.00 48.3
11/05/2019 22:00 -- -- 412.82 0.00 48.2
11/05/2019 21:00 -- -- 412.82 0.00 49.6
11/05/2019 20:00 -- -- 412.83 0.00 49.5
11/05/2019 19:00 -- -- 412.83 0.00 49.6
11/05/2019 18:00 -- -- 412.82 0.00 50.2
11/05/2019 17:00 -- -- 412.83 0.00 50.4
11/05/2019 16:00 -- -- 412.83 0.00 50.6
11/05/2019 15:00 -- -- 412.84 0.00 51.4
11/05/2019 14:00 -- -- 412.84 0.00 50.1
11/05/2019 13:00 3.75 327.0 412.84 0.00 49.7
11/05/2019 12:00 3.75 327.0 412.83 0.00 48.6
11/05/2019 11:00 3.75 327.0 412.84 0.00 46.7
11/05/2019 10:00 3.75 327.0 412.84 0.00 44.7
11/05/2019 09:00 3.75 327.0 412.85 0.00 42.9
11/05/2019 08:00 3.74 322.8 412.85 0.00 42.3
11/05/2019 07:00 3.75 327.0 412.86 0.00 41.7
11/05/2019 06:00 3.75 327.0 412.85 0.00 42.1
11/05/2019 05:00 3.75 327.0 412.86 0.00 42.0
11/05/2019 04:00 3.75 327.0 412.86 0.00 42.5
11/05/2019 03:00 3.76 331.4 412.86 0.00 42.6
11/05/2019 02:00 3.76 331.4 412.86 0.00 42.7
11/05/2019 01:00 3.76 331.4 412.87 0.00 42.0
11/05/2019 00:00 3.75 327.0 412.86 0.00 41.5
11/04/2019 23:00 3.76 331.4 412.87 0.00 42.0
11/04/2019 22:00 3.75 327.0 412.87 0.00 43.0
11/04/2019 21:00 3.76 331.4 412.87 0.00 43.7
11/04/2019 20:00 3.76 331.4 412.87 0.00 43.6
11/04/2019 19:00 3.76 331.4 412.88 0.00 43.8
11/04/2019 18:00 3.76 331.4 412.88 0.00 44.4
11/04/2019 17:00 3.76 331.4 412.88 0.00 48.1
11/04/2019 16:00 3.75 327.0 412.88 0.00 49.9
11/04/2019 15:00 3.75 327.0 412.88 0.00 49.1
11/04/2019 14:00 3.76 331.4 412.88 0.00 48.8
11/04/2019 13:00 3.77 335.7 412.89 0.00 47.7
11/04/2019 12:00 3.77 335.7 412.89 0.00 46.5
11/04/2019 11:00 3.77 335.7 412.90 0.00 44.9
11/04/2019 10:00 -- -- -- -- --
11/04/2019 09:00 -- -- -- -- --